Time;durP1;ratioP1;P1;durP2;ratioP2;P2;SDS_P1;SDS_P2;PMS_P1;PMS_P2;Temp;Humidity;BMP_temperature;BMP_pressure;BME280_temperature;BME280_humidity;BME280_pressure;Samples;Min_cycle;Max_cycle;Signal;HPM_P1;HPM_P2
2022/11/27 00:01:33;;;;;;;19.73;11.52;;;;;;;;;;4819191;29;20049;-84
2022/11/27 00:04:01;;;;;;;13.70;11.15;;;;;;;;;;4845079;29;20073;-84
2022/11/27 00:06:29;;;;;;;15.95;11.63;;;;;;;;;;4795890;29;20423;-84
2022/11/27 00:09:03;;;;;;;15.75;10.70;;;;;;;;;;4845169;29;20135;-84
2022/11/27 00:11:31;;;;;;;15.23;11.98;;;;;;;;;;4838749;29;20545;-84
2022/11/27 00:13:59;;;;;;;18.58;12.77;;;;;;;;;;4828616;29;20050;-84
2022/11/27 00:16:29;;;;;;;18.90;11.88;;;;;;;;;;4822504;29;20531;-84
2022/11/27 00:19:06;;;;;;;15.93;11.30;;;;;;;;;;4808309;29;20050;-84
2022/11/27 00:21:34;;;;;;;16.80;11.98;;;;;;;;;;4802508;29;20064;-84
2022/11/27 00:24:03;;;;;;;18.40;11.98;;;;;;;;;;4846806;29;20157;-84
2022/11/27 00:26:33;;;;;;;20.98;12.65;;;;;;;;;;4811589;29;20048;-84
2022/11/27 00:29:10;;;;;;;19.95;12.20;;;;;;;;;;4839306;29;20053;-83
2022/11/27 00:31:53;;;;;;;20.35;13.02;;;;;;;;;;4818306;29;20055;-83
2022/11/27 00:34:20;;;;;;;23.80;13.48;;;;;;;;;;4822769;29;20072;-83
2022/11/27 00:36:50;;;;;;;24.83;13.30;;;;;;;;;;4833879;29;20062;-83
2022/11/27 00:39:20;;;;;;;20.70;13.55;;;;;;;;;;4798089;29;20050;-86
2022/11/27 00:42:05;;;;;;;24.02;14.52;;;;;;;;;;4841939;29;20082;-84
2022/11/27 00:44:33;;;;;;;20.88;12.73;;;;;;;;;;4823025;29;20412;-83
2022/11/27 00:47:04;;;;;;;22.05;13.02;;;;;;;;;;4828748;29;20487;-83
2022/11/27 00:49:40;;;;;;;18.35;12.27;;;;;;;;;;4836160;29;20132;-85
2022/11/27 00:52:10;;;;;;;20.95;12.13;;;;;;;;;;4830369;29;20054;-84
2022/11/27 00:54:50;;;;;;;22.23;13.93;;;;;;;;;;4840509;29;20125;-83
2022/11/27 00:57:24;;;;;;;18.42;12.63;;;;;;;;;;4836639;29;20062;-84
2022/11/27 00:59:52;;;;;;;25.25;13.85;;;;;;;;;;4820405;29;20038;-84
2022/11/27 01:02:19;;;;;;;22.70;13.52;;;;;;;;;;4850619;29;20476;-84
2022/11/27 01:04:47;;;;;;;21.15;12.65;;;;;;;;;;4796448;29;20539;-84
2022/11/27 01:07:14;;;;;;;19.88;13.30;;;;;;;;;;4841904;29;20069;-83
2022/11/27 01:09:42;;;;;;;21.70;13.02;;;;;;;;;;4840027;29;20054;-83
2022/11/27 01:12:09;;;;;;;18.13;11.95;;;;;;;;;;4847904;29;20050;-83
2022/11/27 01:14:37;;;;;;;19.15;12.45;;;;;;;;;;4843482;29;20065;-82
2022/11/27 01:17:05;;;;;;;20.48;12.88;;;;;;;;;;4854750;29;20070;-83
2022/11/27 01:19:32;;;;;;;21.23;12.07;;;;;;;;;;4846698;29;20049;-83
2022/11/27 01:22:03;;;;;;;18.77;12.35;;;;;;;;;;4829845;29;20049;-84
2022/11/27 01:24:30;;;;;;;18.67;12.20;;;;;;;;;;4853253;29;20050;-84
2022/11/27 01:26:57;;;;;;;20.92;13.10;;;;;;;;;;4822925;29;20152;-84
2022/11/27 01:29:27;;;;;;;21.55;12.80;;;;;;;;;;4829343;29;20095;-83
2022/11/27 01:31:55;;;;;;;21.70;12.75;;;;;;;;;;4804600;29;20053;-84
2022/11/27 01:34:22;;;;;;;20.15;12.27;;;;;;;;;;4818487;29;20061;-84
2022/11/27 01:36:50;;;;;;;16.77;11.82;;;;;;;;;;4798519;29;20590;-83
2022/11/27 01:39:22;;;;;;;25.00;13.10;;;;;;;;;;4802860;29;20045;-84
2022/11/27 01:41:50;;;;;;;20.58;12.82;;;;;;;;;;4820695;29;20047;-84
2022/11/27 01:44:23;;;;;;;20.30;12.18;;;;;;;;;;4807315;29;20057;-84
2022/11/27 01:46:57;;;;;;;18.75;12.15;;;;;;;;;;4835868;29;20048;-84
2022/11/27 01:49:30;;;;;;;18.05;11.25;;;;;;;;;;4820430;29;20062;-84
2022/11/27 01:52:06;;;;;;;18.40;10.90;;;;;;;;;;4796699;29;20457;-83
2022/11/27 01:54:40;;;;;;;19.23;12.52;;;;;;;;;;4808378;29;20211;-84
2022/11/27 01:57:11;;;;;;;20.45;12.52;;;;;;;;;;4795859;29;20110;-84
2022/11/27 01:59:39;;;;;;;19.27;12.32;;;;;;;;;;4827099;29;20508;-84
2022/11/27 02:02:09;;;;;;;18.27;11.85;;;;;;;;;;4812604;29;20054;-84
2022/11/27 02:04:37;;;;;;;21.13;12.57;;;;;;;;;;4807274;29;20046;-84
2022/11/27 02:07:05;;;;;;;21.60;11.77;;;;;;;;;;4807757;29;20071;-84
2022/11/27 02:09:33;;;;;;;19.13;12.27;;;;;;;;;;4819369;29;20056;-84
2022/11/27 02:12:04;;;;;;;19.67;11.40;;;;;;;;;;4804218;29;20474;-85
2022/11/27 02:14:55;;;;;;;16.55;11.57;;;;;;;;;;4823069;29;20423;-84
2022/11/27 02:17:30;;;;;;;17.42;10.75;;;;;;;;;;4834954;29;20031;-85
2022/11/27 02:20:00;;;;;;;20.15;11.43;;;;;;;;;;4851275;29;20073;-82
2022/11/27 02:22:49;;;;;;;18.48;12.40;;;;;;;;;;4818651;29;20049;-83
2022/11/27 02:25:25;;;;;;;20.02;11.90;;;;;;;;;;4839943;29;20050;-83
2022/11/27 02:27:54;;;;;;;19.65;11.52;;;;;;;;;;4838302;29;20152;-84
2022/11/27 02:30:22;;;;;;;15.98;11.15;;;;;;;;;;4834504;29;20109;-84
2022/11/27 02:32:56;;;;;;;17.63;11.07;;;;;;;;;;4821684;29;20501;-84
2022/11/27 02:35:31;;;;;;;20.95;11.98;;;;;;;;;;4838047;29;20105;-83
2022/11/27 02:38:18;;;;;;;15.77;10.52;;;;;;;;;;4838339;29;20114;-84
2022/11/27 02:40:56;;;;;;;17.67;10.98;;;;;;;;;;4833777;29;20043;-84
2022/11/27 02:43:33;;;;;;;19.15;11.05;;;;;;;;;;4835860;29;20049;-87
2022/11/27 02:46:06;;;;;;;15.50;10.65;;;;;;;;;;4819381;29;20054;-84
2022/11/27 02:48:54;;;;;;;17.45;10.63;;;;;;;;;;4811198;29;20479;-84
2022/11/27 02:51:23;;;;;;;16.83;10.88;;;;;;;;;;4835493;29;20057;-83
2022/11/27 02:53:54;;;;;;;19.50;10.68;;;;;;;;;;4839777;29;20053;-85
2022/11/27 02:56:23;;;;;;;16.65;10.43;;;;;;;;;;4858554;29;20049;-84
2022/11/27 02:58:55;;;;;;;15.13;10.27;;;;;;;;;;4852616;29;20063;-85
2022/11/27 03:01:27;;;;;;;15.30;10.18;;;;;;;;;;4832738;29;20054;-85
2022/11/27 03:03:57;;;;;;;19.00;10.93;;;;;;;;;;4819045;29;20046;-84
2022/11/27 03:06:32;;;;;;;18.73;10.48;;;;;;;;;;4833668;29;20544;-84
2022/11/27 03:08:59;;;;;;;14.48;9.48;;;;;;;;;;4831674;29;20042;-85
2022/11/27 03:11:29;;;;;;;14.07;9.50;;;;;;;;;;4813884;29;20078;-85
2022/11/27 03:13:59;;;;;;;14.82;10.07;;;;;;;;;;4817161;29;20050;-84
2022/11/27 03:16:56;;;;;;;13.57;9.52;;;;;;;;;;4824099;29;20087;-85
2022/11/27 03:19:47;;;;;;;21.47;10.00;;;;;;;;;;4841718;29;20140;-84
2022/11/27 03:22:31;;;;;;;16.92;9.50;;;;;;;;;;4817542;29;20038;-83
2022/11/27 03:25:08;;;;;;;12.32;8.75;;;;;;;;;;4839761;29;20054;-83
2022/11/27 03:27:46;;;;;;;18.65;10.85;;;;;;;;;;4818004;29;20045;-85
2022/11/27 03:30:22;;;;;;;16.17;10.15;;;;;;;;;;4824665;29;20068;-86
2022/11/27 03:33:15;;;;;;;14.95;9.02;;;;;;;;;;4827193;29;20065;-84
2022/11/27 03:35:48;;;;;;;17.85;10.15;;;;;;;;;;4830684;29;20062;-86
2022/11/27 03:38:42;;;;;;;20.52;11.80;;;;;;;;;;4811306;29;20051;-85
2022/11/27 03:41:26;;;;;;;14.75;9.85;;;;;;;;;;4811393;29;20041;-85
2022/11/27 03:44:09;;;;;;;21.52;10.30;;;;;;;;;;4809811;29;20041;-86
2022/11/27 03:46:55;;;;;;;14.10;9.68;;;;;;;;;;4826065;29;20053;-84
2022/11/27 03:49:44;;;;;;;16.25;10.63;;;;;;;;;;4820437;29;20106;-85
2022/11/27 03:52:34;;;;;;;15.98;10.65;;;;;;;;;;4815073;29;20141;-84
2022/11/27 03:55:31;;;;;;;15.88;10.43;;;;;;;;;;4828445;29;20050;-84
2022/11/27 03:58:01;;;;;;;15.52;9.90;;;;;;;;;;4820529;29;20050;-84
2022/11/27 04:00:39;;;;;;;14.25;10.23;;;;;;;;;;4839681;29;20453;-85
2022/11/27 04:03:11;;;;;;;14.48;9.52;;;;;;;;;;4837961;29;20042;-85
2022/11/27 04:05:40;;;;;;;15.77;10.20;;;;;;;;;;4796182;29;20141;-85
2022/11/27 04:08:11;;;;;;;14.75;10.10;;;;;;;;;;4810109;29;20053;-86
2022/11/27 04:10:42;;;;;;;15.10;10.25;;;;;;;;;;4838218;29;20081;-84
2022/11/27 04:13:10;;;;;;;15.95;10.32;;;;;;;;;;4806361;29;20441;-84
2022/11/27 04:15:38;;;;;;;16.08;10.60;;;;;;;;;;4838880;29;20076;-85
2022/11/27 04:18:17;;;;;;;12.57;9.73;;;;;;;;;;4837631;29;20049;-85
2022/11/27 04:20:57;;;;;;;16.52;10.05;;;;;;;;;;4801366;29;20303;-84
2022/11/27 04:23:25;;;;;;;14.90;9.70;;;;;;;;;;4813322;29;20390;-86
2022/11/27 04:25:52;;;;;;;17.40;11.75;;;;;;;;;;4835009;29;20042;-86
2022/11/27 04:28:23;;;;;;;16.38;10.68;;;;;;;;;;4855944;29;20053;-85
2022/11/27 04:30:51;;;;;;;16.35;10.98;;;;;;;;;;4831580;29;20057;-85
2022/11/27 04:33:19;;;;;;;15.45;10.15;;;;;;;;;;4842902;29;20050;-84
2022/11/27 04:35:49;;;;;;;13.95;10.07;;;;;;;;;;4817167;29;20102;-84
2022/11/27 04:38:17;;;;;;;16.20;11.35;;;;;;;;;;4810094;29;20128;-85
2022/11/27 04:40:45;;;;;;;15.38;10.95;;;;;;;;;;4834330;29;20465;-83
2022/11/27 04:43:12;;;;;;;15.52;10.65;;;;;;;;;;4833803;29;20053;-86
2022/11/27 04:45:53;;;;;;;18.00;11.00;;;;;;;;;;4809454;29;20046;-86
2022/11/27 04:48:21;;;;;;;14.35;9.77;;;;;;;;;;4838461;29;20046;-85
2022/11/27 04:50:48;;;;;;;12.85;10.10;;;;;;;;;;4835116;29;20054;-85
2022/11/27 04:53:18;;;;;;;18.33;11.50;;;;;;;;;;4809403;29;20054;-84
2022/11/27 04:55:54;;;;;;;12.40;9.93;;;;;;;;;;4844466;29;20046;-84
2022/11/27 04:58:45;;;;;;;15.68;11.23;;;;;;;;;;4827698;29;20054;-88
2022/11/27 05:01:19;;;;;;;12.70;9.90;;;;;;;;;;4817339;29;20485;-83
2022/11/27 05:03:47;;;;;;;13.38;10.25;;;;;;;;;;4807250;29;20042;-84
2022/11/27 05:06:15;;;;;;;15.77;9.10;;;;;;;;;;4832113;29;20041;-84
2022/11/27 05:08:42;;;;;;;13.82;9.70;;;;;;;;;;4829461;29;20505;-83
2022/11/27 05:11:14;;;;;;;12.30;9.48;;;;;;;;;;4831102;29;20062;-83
2022/11/27 05:13:41;;;;;;;14.23;8.70;;;;;;;;;;4813976;29;20508;-84
2022/11/27 05:16:11;;;;;;;11.05;8.02;;;;;;;;;;4813769;29;20054;-84
2022/11/27 05:18:38;;;;;;;10.10;8.77;;;;;;;;;;4819673;29;20773;-84
2022/11/27 05:21:07;;;;;;;10.82;8.55;;;;;;;;;;4834845;29;20046;-84
2022/11/27 05:23:37;;;;;;;8.70;7.68;;;;;;;;;;4829273;29;20067;-84
2022/11/27 05:26:04;;;;;;;10.00;8.38;;;;;;;;;;4826699;29;20132;-83
2022/11/27 05:28:32;;;;;;;9.68;7.65;;;;;;;;;;4830531;29;20048;-84
2022/11/27 05:31:00;;;;;;;10.02;7.57;;;;;;;;;;4814592;29;20142;-84
2022/11/27 05:33:30;;;;;;;9.98;7.80;;;;;;;;;;4821078;29;20058;-85
2022/11/27 05:35:57;;;;;;;8.95;7.53;;;;;;;;;;4817367;29;20351;-85
2022/11/27 05:38:27;;;;;;;9.02;7.32;;;;;;;;;;4795220;29;20058;-84
2022/11/27 05:40:56;;;;;;;9.00;7.40;;;;;;;;;;4832432;29;20129;-83
2022/11/27 05:43:24;;;;;;;10.27;8.15;;;;;;;;;;4832997;29;20045;-84
2022/11/27 05:45:51;;;;;;;8.50;7.22;;;;;;;;;;4822636;29;20458;-84
2022/11/27 05:48:18;;;;;;;9.05;7.35;;;;;;;;;;4849894;29;20042;-84
2022/11/27 05:50:45;;;;;;;8.93;7.18;;;;;;;;;;4828613;29;20042;-84
2022/11/27 05:53:14;;;;;;;8.07;7.03;;;;;;;;;;4839307;29;20054;-84
2022/11/27 05:55:41;;;;;;;8.75;7.85;;;;;;;;;;4837395;29;20054;-83
2022/11/27 05:58:08;;;;;;;10.32;8.00;;;;;;;;;;4855322;29;20138;-82
2022/11/27 06:00:35;;;;;;;9.48;7.97;;;;;;;;;;4857655;29;20041;-84
2022/11/27 06:03:05;;;;;;;8.57;7.68;;;;;;;;;;4855327;29;20065;-84
2022/11/27 06:05:39;;;;;;;8.40;7.50;;;;;;;;;;4804075;29;20058;-84
2022/11/27 06:08:07;;;;;;;9.25;7.50;;;;;;;;;;4818888;29;20538;-83
2022/11/27 06:10:34;;;;;;;9.48;7.40;;;;;;;;;;4818855;29;20077;-84
2022/11/27 06:13:01;;;;;;;8.50;7.40;;;;;;;;;;4823476;29;20413;-84
2022/11/27 06:15:29;;;;;;;13.23;10.15;;;;;;;;;;4815327;29;20049;-84
2022/11/27 06:18:20;;;;;;;12.70;9.35;;;;;;;;;;4828102;29;20046;-84
2022/11/27 06:20:48;;;;;;;16.30;10.07;;;;;;;;;;4821464;29;20408;-84
2022/11/27 06:23:21;;;;;;;12.40;9.18;;;;;;;;;;4803234;29;20061;-84
2022/11/27 06:25:50;;;;;;;14.48;8.88;;;;;;;;;;4821498;29;20146;-84
2022/11/27 06:28:19;;;;;;;11.82;8.90;;;;;;;;;;4841309;29;20758;-84
2022/11/27 06:30:47;;;;;;;11.35;9.05;;;;;;;;;;4803090;29;20509;-84
2022/11/27 06:33:17;;;;;;;10.40;7.43;;;;;;;;;;4843449;29;20058;-84
2022/11/27 06:36:05;;;;;;;11.25;8.75;;;;;;;;;;4821529;29;20129;-82
2022/11/27 06:38:33;;;;;;;13.88;8.85;;;;;;;;;;4824040;29;20050;-84
2022/11/27 06:41:11;;;;;;;13.20;8.68;;;;;;;;;;4836717;29;20048;-84
2022/11/27 06:43:41;;;;;;;11.63;8.80;;;;;;;;;;4837346;29;20080;-84
2022/11/27 06:46:17;;;;;;;13.60;8.98;;;;;;;;;;4820316;29;20088;-83
2022/11/27 06:49:29;;;;;;;11.40;8.38;;;;;;;;;;4801981;29;20126;-84
2022/11/27 06:52:02;;;;;;;11.73;8.48;;;;;;;;;;4825386;29;20061;-84
2022/11/27 06:54:44;;;;;;;9.95;7.50;;;;;;;;;;4827506;29;20050;-84
2022/11/27 06:57:17;;;;;;;11.68;8.27;;;;;;;;;;4820167;29;20161;-83
2022/11/27 07:00:29;;;;;;;10.93;7.53;;;;;;;;;;4815120;29;20052;-84
2022/11/27 07:03:23;;;;;;;14.02;8.77;;;;;;;;;;4791520;29;20560;-84
2022/11/27 07:05:54;;;;;;;12.00;8.13;;;;;;;;;;4791140;29;20054;-84
2022/11/27 07:08:21;;;;;;;9.82;7.68;;;;;;;;;;4819743;29;20046;-84
2022/11/27 07:10:53;;;;;;;11.02;7.68;;;;;;;;;;4840474;29;20137;-84
2022/11/27 07:13:21;;;;;;;10.10;7.53;;;;;;;;;;4824192;29;20046;-85
2022/11/27 07:15:57;;;;;;;9.77;7.40;;;;;;;;;;4816327;29;20061;-85
2022/11/27 07:18:27;;;;;;;10.98;7.45;;;;;;;;;;4822686;29;20045;-84
2022/11/27 07:20:54;;;;;;;8.75;7.30;;;;;;;;;;4836356;29;20038;-84
2022/11/27 07:23:26;;;;;;;11.23;8.40;;;;;;;;;;4819733;29;20058;-84
2022/11/27 07:25:53;;;;;;;9.73;8.00;;;;;;;;;;4809455;29;20078;-84
2022/11/27 07:28:24;;;;;;;11.98;8.15;;;;;;;;;;4794027;29;20400;-84
2022/11/27 07:30:57;;;;;;;13.75;8.77;;;;;;;;;;4823855;29;20073;-83
2022/11/27 07:33:24;;;;;;;11.38;8.15;;;;;;;;;;4844541;29;20523;-84
2022/11/27 07:36:00;;;;;;;9.75;7.55;;;;;;;;;;4817270;29;20058;-85
2022/11/27 07:38:27;;;;;;;14.65;8.93;;;;;;;;;;4822166;29;20069;-84
2022/11/27 07:40:55;;;;;;;12.15;8.80;;;;;;;;;;4821970;29;20130;-84
2022/11/27 07:43:24;;;;;;;16.63;9.18;;;;;;;;;;4809604;29;20050;-84
2022/11/27 07:45:52;;;;;;;11.27;8.48;;;;;;;;;;4804618;29;20053;-85
2022/11/27 07:48:19;;;;;;;11.52;8.48;;;;;;;;;;4826340;29;20045;-85
2022/11/27 07:50:46;;;;;;;12.05;8.77;;;;;;;;;;4840472;29;20066;-84
2022/11/27 07:53:14;;;;;;;11.65;8.60;;;;;;;;;;4819768;29;20050;-84
2022/11/27 07:55:43;;;;;;;10.52;8.18;;;;;;;;;;4814340;29;20053;-84
2022/11/27 07:58:14;;;;;;;14.07;8.85;;;;;;;;;;4796511;29;20073;-84
2022/11/27 08:01:26;;;;;;;9.90;7.35;;;;;;;;;;4811418;29;20050;-83
2022/11/27 08:04:02;;;;;;;17.30;8.13;;;;;;;;;;4823189;29;20084;-84
2022/11/27 08:10:11;;;;;;;9.75;6.88;;;;;;;;;;4836131;29;20058;-82
2022/11/27 08:13:10;;;;;;;10.80;6.97;;;;;;;;;;4790454;29;20272;-85
2022/11/27 08:15:57;;;;;;;11.25;7.10;;;;;;;;;;4821029;29;20491;-84
2022/11/27 08:18:31;;;;;;;9.90;6.43;;;;;;;;;;4791195;29;20168;-84
2022/11/27 08:21:10;;;;;;;10.73;7.18;;;;;;;;;;4815560;29;20046;-84
2022/11/27 08:23:37;;;;;;;11.68;6.90;;;;;;;;;;4818147;29;20087;-84
2022/11/27 08:26:16;;;;;;;13.20;7.70;;;;;;;;;;4838790;24;20149;-85
2022/11/27 08:28:53;;;;;;;11.85;7.70;;;;;;;;;;4787456;29;20154;-88
2022/11/27 08:31:29;;;;;;;10.93;7.28;;;;;;;;;;4806673;29;20061;-87
2022/11/27 08:33:59;;;;;;;8.93;5.63;;;;;;;;;;4789466;29;20068;-86
2022/11/27 08:36:29;;;;;;;7.53;5.65;;;;;;;;;;4801711;29;20521;-87
2022/11/27 08:39:03;;;;;;;8.07;6.18;;;;;;;;;;4795926;29;20058;-85
2022/11/27 08:42:03;;;;;;;7.35;5.78;;;;;;;;;;4821150;29;20049;-84
2022/11/27 08:45:11;;;;;;;10.45;6.65;;;;;;;;;;5547319;24;20135;-73
2022/11/27 08:47:39;;;;;;;7.30;5.65;;;;;;;;;;4813112;29;20042;-73
2022/11/27 08:50:07;;;;;;;6.68;5.13;;;;;;;;;;4821881;29;20055;-73
2022/11/27 08:52:34;;;;;;;8.80;5.90;;;;;;;;;;4796164;29;20042;-73
2022/11/27 08:55:01;;;;;;;6.75;5.38;;;;;;;;;;4808633;29;20050;-73
2022/11/27 08:57:29;;;;;;;6.60;4.63;;;;;;;;;;4814948;29;20582;-73
2022/11/27 08:59:56;;;;;;;8.30;5.72;;;;;;;;;;4812513;29;20551;-75
2022/11/27 09:02:23;;;;;;;4.80;4.05;;;;;;;;;;4815148;29;20499;-73
2022/11/27 09:04:50;;;;;;;5.60;5.03;;;;;;;;;;4809287;29;20050;-74
2022/11/27 09:07:18;;;;;;;9.35;6.20;;;;;;;;;;4813985;29;20054;-75
2022/11/27 09:09:45;;;;;;;6.13;5.35;;;;;;;;;;4812081;29;20047;-74
2022/11/27 09:12:13;;;;;;;7.32;5.60;;;;;;;;;;4809266;29;20046;-74
2022/11/27 09:14:40;;;;;;;6.32;5.70;;;;;;;;;;4784185;29;20043;-74
2022/11/27 09:17:09;;;;;;;4.70;4.20;;;;;;;;;;4804999;29;20054;-74
2022/11/27 09:19:36;;;;;;;7.90;6.38;;;;;;;;;;4814181;29;20061;-74
2022/11/27 09:22:03;;;;;;;6.05;5.40;;;;;;;;;;4812718;29;20772;-75
2022/11/27 09:24:31;;;;;;;6.95;5.47;;;;;;;;;;4814989;29;20676;-74
2022/11/27 09:26:58;;;;;;;6.88;5.50;;;;;;;;;;4780494;29;20059;-75
2022/11/27 09:29:25;;;;;;;8.18;6.10;;;;;;;;;;4820197;29;20057;-74
2022/11/27 09:31:53;;;;;;;6.75;5.18;;;;;;;;;;4811450;29;20050;-74
2022/11/27 09:34:20;;;;;;;5.25;4.75;;;;;;;;;;4783684;29;20138;-74
2022/11/27 09:36:49;;;;;;;4.53;4.13;;;;;;;;;;4815660;29;20069;-73
2022/11/27 09:39:18;;;;;;;5.53;4.63;;;;;;;;;;4809406;29;20073;-74
2022/11/27 09:41:50;;;;;;;6.70;5.63;;;;;;;;;;4777311;29;20039;-74
2022/11/27 09:44:23;;;;;;;6.05;5.32;;;;;;;;;;4807246;29;20046;-74
2022/11/27 09:46:51;;;;;;;7.03;6.32;;;;;;;;;;4805396;29;20050;-74
2022/11/27 09:49:22;;;;;;;5.43;4.85;;;;;;;;;;4792655;29;20057;-73
2022/11/27 09:51:53;;;;;;;6.80;5.30;;;;;;;;;;4805323;29;20057;-74
2022/11/27 09:54:26;;;;;;;5.90;4.68;;;;;;;;;;4806912;29;20047;-74
2022/11/27 09:56:55;;;;;;;6.55;5.75;;;;;;;;;;4804465;29;20106;-74
2022/11/27 09:59:28;;;;;;;9.77;5.22;;;;;;;;;;4804201;29;20073;-73
2022/11/27 10:01:56;;;;;;;5.40;4.65;;;;;;;;;;4811522;29;20054;-77
2022/11/27 10:04:24;;;;;;;5.30;4.80;;;;;;;;;;4776793;29;20138;-73
2022/11/27 10:07:00;;;;;;;5.60;4.97;;;;;;;;;;4799276;29;20118;-74
2022/11/27 10:09:30;;;;;;;5.72;5.13;;;;;;;;;;4810218;29;20657;-74
2022/11/27 10:12:05;;;;;;;5.70;5.00;;;;;;;;;;4815055;29;20058;-73
2022/11/27 10:14:33;;;;;;;5.40;4.90;;;;;;;;;;4798646;29;20527;-73
2022/11/27 10:17:09;;;;;;;6.10;4.25;;;;;;;;;;4806121;29;20089;-74
2022/11/27 10:19:40;;;;;;;5.90;5.30;;;;;;;;;;4801471;29;20080;-75
2022/11/27 10:22:29;;;;;;;5.38;4.88;;;;;;;;;;4812715;29;20046;-73
2022/11/27 10:25:09;;;;;;;5.65;4.80;;;;;;;;;;4808796;29;20050;-73
2022/11/27 10:27:43;;;;;;;6.20;5.10;;;;;;;;;;4797225;29;20042;-73
2022/11/27 10:30:18;;;;;;;5.53;4.57;;;;;;;;;;4796962;29;20129;-72
2022/11/27 10:32:47;;;;;;;5.70;5.00;;;;;;;;;;4817257;29;20136;-72
2022/11/27 10:35:24;;;;;;;11.00;4.85;;;;;;;;;;4811818;29;20419;-72
2022/11/27 10:37:54;;;;;;;5.93;5.03;;;;;;;;;;4796099;29;20054;-74
2022/11/27 10:40:27;;;;;;;6.78;5.75;;;;;;;;;;4783658;29;20050;-74
2022/11/27 10:43:01;;;;;;;6.35;5.07;;;;;;;;;;4797715;29;20099;-73
2022/11/27 10:45:38;;;;;;;7.03;5.57;;;;;;;;;;4820988;29;20053;-75
2022/11/27 10:48:05;;;;;;;6.20;5.25;;;;;;;;;;4810744;29;20061;-75
2022/11/27 10:50:33;;;;;;;4.93;4.40;;;;;;;;;;4811711;29;20477;-74
2022/11/27 10:53:10;;;;;;;7.57;5.13;;;;;;;;;;4817256;29;20046;-73
2022/11/27 10:55:45;;;;;;;5.72;4.68;;;;;;;;;;4780768;29;20050;-73
2022/11/27 10:58:23;;;;;;;4.97;4.43;;;;;;;;;;4815225;29;20802;-74
2022/11/27 11:00:59;;;;;;;4.68;4.28;;;;;;;;;;4816903;29;20392;-74
2022/11/27 11:03:27;;;;;;;6.15;4.80;;;;;;;;;;4797693;29;20050;-74
2022/11/27 11:05:56;;;;;;;5.13;4.63;;;;;;;;;;4800674;29;20066;-75
2022/11/27 11:08:44;;;;;;;4.25;3.85;;;;;;;;;;4816433;29;20800;-74
2022/11/27 11:11:11;;;;;;;5.30;4.80;;;;;;;;;;4818399;29;20054;-73
2022/11/27 11:13:41;;;;;;;6.93;4.95;;;;;;;;;;4816734;29;20545;-73
2022/11/27 11:16:12;;;;;;;8.57;5.30;;;;;;;;;;4815864;29;20080;-74
2022/11/27 11:18:42;;;;;;;11.63;5.68;;;;;;;;;;4811911;29;20824;-74
2022/11/27 11:21:15;;;;;;;6.03;5.38;;;;;;;;;;4811223;29;20042;-74
2022/11/27 11:23:45;;;;;;;6.15;5.35;;;;;;;;;;4814610;29;20046;-74
2022/11/27 11:26:22;;;;;;;6.63;5.05;;;;;;;;;;4787510;29;20530;-73
2022/11/27 11:28:51;;;;;;;17.88;12.15;;;;;;;;;;4821424;29;20716;-76
2022/11/27 11:31:20;;;;;;;7.25;6.05;;;;;;;;;;4821855;29;20459;-73
2022/11/27 11:34:14;;;;;;;6.68;5.93;;;;;;;;;;4811129;29;20499;-75
2022/11/27 11:36:52;;;;;;;19.40;14.70;;;;;;;;;;4776901;29;20058;-74
2022/11/27 11:39:25;;;;;;;19.88;17.17;;;;;;;;;;4791253;29;20050;-75
2022/11/27 11:41:52;;;;;;;7.80;6.32;;;;;;;;;;4804747;29;20050;-74
2022/11/27 11:44:26;;;;;;;6.43;5.47;;;;;;;;;;4791580;29;20062;-74
2022/11/27 11:46:53;;;;;;;5.47;4.95;;;;;;;;;;4814220;29;20039;-72
2022/11/27 11:49:25;;;;;;;6.65;5.15;;;;;;;;;;4816832;29;20042;-73
2022/11/27 11:51:52;;;;;;;6.40;5.80;;;;;;;;;;4806881;29;20084;-76
2022/11/27 11:54:26;;;;;;;10.27;7.97;;;;;;;;;;4802795;29;20065;-74
2022/11/27 11:56:58;;;;;;;9.48;8.20;;;;;;;;;;4787299;29;20051;-74
2022/11/27 11:59:29;;;;;;;7.43;6.33;;;;;;;;;;4792268;29;20151;-74
2022/11/27 12:02:19;;;;;;;8.15;7.40;;;;;;;;;;4781455;29;20884;-74
2022/11/27 12:04:46;;;;;;;5.78;5.22;;;;;;;;;;4795753;29;20508;-74
2022/11/27 12:07:21;;;;;;;5.78;5.22;;;;;;;;;;4804975;29;20046;-74
2022/11/27 12:10:01;;;;;;;6.32;5.63;;;;;;;;;;4791119;29;20066;-74
2022/11/27 12:12:47;;;;;;;9.07;7.32;;;;;;;;;;4803175;29;20050;-74
2022/11/27 12:15:31;;;;;;;7.22;6.32;;;;;;;;;;4807986;29;20150;-75
2022/11/27 12:18:01;;;;;;;15.10;10.57;;;;;;;;;;4817548;29;20046;-75
2022/11/27 12:20:33;;;;;;;6.80;6.10;;;;;;;;;;4796025;29;20431;-75
2022/11/27 12:23:13;;;;;;;6.90;5.13;;;;;;;;;;4816051;29;20525;-74
2022/11/27 12:25:53;;;;;;;6.30;5.25;;;;;;;;;;4813020;29;20507;-74
2022/11/27 12:28:25;;;;;;;6.57;5.38;;;;;;;;;;4802189;29;20046;-75
2022/11/27 12:31:19;;;;;;;5.70;4.97;;;;;;;;;;4791921;29;20053;-75
2022/11/27 12:33:53;;;;;;;7.07;5.15;;;;;;;;;;4793986;29;20055;-75
2022/11/27 12:36:35;;;;;;;7.80;6.50;;;;;;;;;;4798557;29;20854;-75
2022/11/27 12:39:22;;;;;;;7.30;5.63;;;;;;;;;;4798983;29;20076;-75
2022/11/27 12:41:59;;;;;;;6.82;5.50;;;;;;;;;;4785416;29;20047;-75
2022/11/27 12:44:46;;;;;;;5.88;5.30;;;;;;;;;;4787890;29;20710;-75
2022/11/27 12:47:16;;;;;;;5.85;5.25;;;;;;;;;;4784303;29;20081;-75
2022/11/27 12:49:50;;;;;;;5.78;5.18;;;;;;;;;;4791112;29;20492;-74
2022/11/27 12:52:23;;;;;;;7.18;6.15;;;;;;;;;;4792523;29;20050;-75
2022/11/27 12:54:52;;;;;;;6.47;5.60;;;;;;;;;;4817944;29;20042;-75
2022/11/27 12:57:29;;;;;;;7.47;5.65;;;;;;;;;;4806009;29;20114;-75
2022/11/27 12:59:58;;;;;;;5.40;4.85;;;;;;;;;;4824958;29;20046;-75
2022/11/27 13:02:33;;;;;;;5.63;5.03;;;;;;;;;;4822452;29;20073;-74
2022/11/27 13:05:04;;;;;;;5.57;4.30;;;;;;;;;;4835517;29;20054;-74
2022/11/27 13:07:44;;;;;;;8.10;5.50;;;;;;;;;;4818623;29;20061;-74
2022/11/27 13:10:11;;;;;;;7.13;5.15;;;;;;;;;;4835057;29;20049;-74
2022/11/27 13:12:42;;;;;;;6.72;5.13;;;;;;;;;;4827212;29;20055;-74
2022/11/27 13:15:22;;;;;;;5.47;4.95;;;;;;;;;;4824171;29;20184;-75
2022/11/27 13:17:55;;;;;;;6.70;4.93;;;;;;;;;;4820333;29;20085;-74
2022/11/27 13:20:26;;;;;;;5.00;4.40;;;;;;;;;;4822202;29;20065;-74
2022/11/27 13:22:54;;;;;;;6.32;5.03;;;;;;;;;;4802436;29;20129;-74
2022/11/27 13:25:21;;;;;;;6.68;5.50;;;;;;;;;;4812145;29;20046;-74
2022/11/27 13:27:50;;;;;;;7.10;5.18;;;;;;;;;;4812425;29;20135;-74
2022/11/27 13:30:22;;;;;;;6.75;5.63;;;;;;;;;;4793928;29;20085;-74
2022/11/27 13:32:54;;;;;;;7.53;5.35;;;;;;;;;;4804932;29;20142;-73
2022/11/27 13:35:25;;;;;;;5.88;4.75;;;;;;;;;;4798187;29;20047;-76
2022/11/27 13:37:59;;;;;;;7.32;4.78;;;;;;;;;;4806153;29;20122;-74
2022/11/27 13:40:31;;;;;;;7.25;5.47;;;;;;;;;;4804478;29;20058;-75
2022/11/27 13:43:03;;;;;;;8.00;6.07;;;;;;;;;;4801196;29;20047;-76
2022/11/27 13:45:35;;;;;;;8.65;5.85;;;;;;;;;;4800000;29;20045;-73
2022/11/27 13:48:21;;;;;;;7.60;5.78;;;;;;;;;;4803951;29;20101;-75
2022/11/27 13:50:48;;;;;;;9.82;7.00;;;;;;;;;;4806300;29;20053;-74
2022/11/27 13:53:16;;;;;;;9.95;6.55;;;;;;;;;;4805592;29;20042;-75
2022/11/27 13:55:55;;;;;;;7.43;5.90;;;;;;;;;;4786335;29;20042;-76
2022/11/27 13:58:30;;;;;;;9.73;7.07;;;;;;;;;;4802392;29;20129;-76
2022/11/27 14:00:58;;;;;;;8.15;6.05;;;;;;;;;;4813124;29;20046;-75
2022/11/27 14:03:27;;;;;;;8.48;6.28;;;;;;;;;;4793505;29;20074;-74
2022/11/27 14:05:54;;;;;;;10.30;7.28;;;;;;;;;;4813202;29;20046;-74
2022/11/27 14:08:22;;;;;;;7.05;6.15;;;;;;;;;;4810984;29;20136;-75
2022/11/27 14:10:51;;;;;;;8.70;7.00;;;;;;;;;;4809723;29;20313;-75
2022/11/27 14:13:19;;;;;;;11.70;7.65;;;;;;;;;;4809479;29;20057;-75
2022/11/27 14:16:00;;;;;;;9.88;8.27;;;;;;;;;;4808649;29;20042;-75
2022/11/27 14:18:29;;;;;;;10.88;8.50;;;;;;;;;;4797416;29;20142;-74
2022/11/27 14:20:56;;;;;;;11.35;8.77;;;;;;;;;;4811699;29;20266;-74
2022/11/27 14:23:35;;;;;;;11.90;8.85;;;;;;;;;;4811063;29;20050;-75
2022/11/27 14:26:05;;;;;;;9.48;7.90;;;;;;;;;;4835536;24;20506;-85
2022/11/27 14:28:58;;;;;;;11.65;8.65;;;;;;;;;;4815032;29;20090;-84
2022/11/27 14:31:30;;;;;;;9.70;7.55;;;;;;;;;;4822001;29;20050;-84
2022/11/27 14:34:24;;;;;;;11.82;7.80;;;;;;;;;;4812749;29;20054;-84
2022/11/27 14:36:58;;;;;;;11.43;7.57;;;;;;;;;;4798885;29;20063;-84
2022/11/27 14:39:38;;;;;;;12.70;8.88;;;;;;;;;;4806576;29;20501;-83
2022/11/27 14:42:20;;;;;;;10.95;8.07;;;;;;;;;;4811658;29;20059;-84
2022/11/27 14:44:55;;;;;;;;;;;;;;;;;;4807388;29;20065;-83
2022/11/27 14:47:30;;;;;;;10.02;7.25;;;;;;;;;;4820794;29;20261;-84
2022/11/27 14:50:02;;;;;;;9.82;7.22;;;;;;;;;;4810365;29;20051;-84
2022/11/27 14:52:33;;;;;;;13.55;8.63;;;;;;;;;;4809909;29;20059;-83
2022/11/27 14:55:05;;;;;;;14.20;9.63;;;;;;;;;;4813576;29;20066;-84
2022/11/27 14:57:36;;;;;;;16.37;10.93;;;;;;;;;;4783844;29;20054;-83
2022/11/27 15:00:31;;;;;;;17.40;12.43;;;;;;;;;;4807152;29;20073;-84
2022/11/27 15:03:09;;;;;;;23.63;13.10;;;;;;;;;;4806479;29;20081;-84
2022/11/27 15:05:38;;;;;;;20.45;13.63;;;;;;;;;;4786913;29;20053;-83
2022/11/27 15:08:08;;;;;;;22.83;13.55;;;;;;;;;;4795273;29;20049;-83
2022/11/27 15:10:42;;;;;;;21.50;13.40;;;;;;;;;;4814084;29;20505;-84